sensor_id;sensor_type;location;lat;lon;timestamp;temperature;humidity
5415;DHT22;2730;51.512;7.504;2022-12-29T06:00:36;11.70;99.90
5415;DHT22;2730;51.512;7.504;2022-12-29T06:03:06;11.70;99.90
5415;DHT22;2730;51.512;7.504;2022-12-29T06:05:33;11.60;99.90
5415;DHT22;2730;51.512;7.504;2022-12-29T06:08:00;11.50;99.90
5415;DHT22;2730;51.512;7.504;2022-12-29T06:10:26;11.40;99.90
5415;DHT22;2730;51.512;7.504;2022-12-29T06:13:02;11.40;99.90
5415;DHT22;2730;51.512;7.504;2022-12-29T06:15:31;11.40;99.90
5415;DHT22;2730;51.512;7.504;2022-12-29T06:17:59;11.50;99.90
5415;DHT22;2730;51.512;7.504;2022-12-29T06:20:26;11.50;99.90
5415;DHT22;2730;51.512;7.504;2022-12-29T06:22:53;11.50;99.90
5415;DHT22;2730;51.512;7.504;2022-12-29T06:25:20;11.50;99.90
5415;DHT22;2730;51.512;7.504;2022-12-29T06:27:47;11.60;99.90
5415;DHT22;2730;51.512;7.504;2022-12-29T06:30:14;11.60;99.90
5415;DHT22;2730;51.512;7.504;2022-12-29T06:32:42;11.50;99.90
5415;DHT22;2730;51.512;7.504;2022-12-29T06:35:11;11.50;99.90
5415;DHT22;2730;51.512;7.504;2022-12-29T06:37:38;11.60;99.90
5415;DHT22;2730;51.512;7.504;2022-12-29T06:40:05;11.70;99.90
5415;DHT22;2730;51.512;7.504;2022-12-29T06:42:32;11.70;99.90
5415;DHT22;2730;51.512;7.504;2022-12-29T06:44:59;11.70;99.90
5415;DHT22;2730;51.512;7.504;2022-12-29T06:47:26;11.70;99.90
5415;DHT22;2730;51.512;7.504;2022-12-29T06:49:53;11.70;99.90
5415;DHT22;2730;51.512;7.504;2022-12-29T06:52:22;11.60;99.90
5415;DHT22;2730;51.512;7.504;2022-12-29T06:54:49;11.70;99.90
5415;DHT22;2730;51.512;7.504;2022-12-29T06:57:16;11.70;99.90
5415;DHT22;2730;51.512;7.504;2022-12-29T06:59:43;11.60;99.90
5415;DHT22;2730;51.512;7.504;2022-12-29T07:02:10;11.50;99.90
5415;DHT22;2730;51.512;7.504;2022-12-29T07:04:38;11.50;99.90
5415;DHT22;2730;51.512;7.504;2022-12-29T07:07:05;11.50;99.90
5415;DHT22;2730;51.512;7.504;2022-12-29T07:09:33;11.60;99.90
5415;DHT22;2730;51.512;7.504;2022-12-29T07:12:00;11.50;99.90
5415;DHT22;2730;51.512;7.504;2022-12-29T07:14:27;11.50;99.90
5415;DHT22;2730;51.512;7.504;2022-12-29T07:16:54;11.50;99.90
5415;DHT22;2730;51.512;7.504;2022-12-29T07:19:21;11.50;99.90
5415;DHT22;2730;51.512;7.504;2022-12-29T07:21:47;11.40;99.90
5415;DHT22;2730;51.512;7.504;2022-12-29T07:24:14;11.50;99.90
5415;DHT22;2730;51.512;7.504;2022-12-29T07:26:42;11.50;99.90
5415;DHT22;2730;51.512;7.504;2022-12-29T07:29:09;11.50;99.90
5415;DHT22;2730;51.512;7.504;2022-12-29T07:31:36;11.50;99.90
5415;DHT22;2730;51.512;7.504;2022-12-29T07:34:03;11.40;99.90
5415;DHT22;2730;51.512;7.504;2022-12-29T07:36:30;11.40;99.90
5415;DHT22;2730;51.512;7.504;2022-12-29T07:38:57;11.40;99.90
5415;DHT22;2730;51.512;7.504;2022-12-29T07:41:23;11.40;99.90
5415;DHT22;2730;51.512;7.504;2022-12-29T07:43:52;11.50;99.90
5415;DHT22;2730;51.512;7.504;2022-12-29T07:46:19;11.50;99.90
5415;DHT22;2730;51.512;7.504;2022-12-29T07:48:45;11.40;99.90
5415;DHT22;2730;51.512;7.504;2022-12-29T07:51:12;11.50;99.90
5415;DHT22;2730;51.512;7.504;2022-12-29T07:53:39;11.40;99.90
5415;DHT22;2730;51.512;7.504;2022-12-29T07:56:06;11.40;99.90
5415;DHT22;2730;51.512;7.504;2022-12-29T07:58:33;11.40;99.90
5415;DHT22;2730;51.512;7.504;2022-12-29T08:01:01;11.30;99.90
5415;DHT22;2730;51.512;7.504;2022-12-29T08:03:28;11.30;99.90
5415;DHT22;2730;51.512;7.504;2022-12-29T08:05:56;11.10;99.90
5415;DHT22;2730;51.512;7.504;2022-12-29T08:08:23;11.10;99.90
5415;DHT22;2730;51.512;7.504;2022-12-29T08:10:50;11.10;99.90
5415;DHT22;2730;51.512;7.504;2022-12-29T08:13:17;11.20;99.90
5415;DHT22;2730;51.512;7.504;2022-12-29T08:15:44;11.20;99.90
5415;DHT22;2730;51.512;7.504;2022-12-29T08:18:12;11.30;99.90
5415;DHT22;2730;51.512;7.504;2022-12-29T08:20:39;11.30;99.90
5415;DHT22;2730;51.512;7.504;2022-12-29T08:23:06;11.20;99.90
5415;DHT22;2730;51.512;7.504;2022-12-29T08:25:33;11.20;99.90
5415;DHT22;2730;51.512;7.504;2022-12-29T08:28:00;11.10;99.90
5415;DHT22;2730;51.512;7.504;2022-12-29T08:30:26;11.20;99.90
5415;DHT22;2730;51.512;7.504;2022-12-29T08:32:53;11.30;99.90
5415;DHT22;2730;51.512;7.504;2022-12-29T08:35:22;11.20;99.90
5415;DHT22;2730;51.512;7.504;2022-12-29T08:37:48;11.20;99.90
5415;DHT22;2730;51.512;7.504;2022-12-29T08:40:15;11.20;99.90
5415;DHT22;2730;51.512;7.504;2022-12-29T08:42:43;11.30;99.90
5415;DHT22;2730;51.512;7.504;2022-12-29T08:45:10;11.30;99.90
5415;DHT22;2730;51.512;7.504;2022-12-29T08:47:37;11.30;99.90
5415;DHT22;2730;51.512;7.504;2022-12-29T08:50:05;11.20;99.90
5415;DHT22;2730;51.512;7.504;2022-12-29T08:52:33;11.30;99.90
5415;DHT22;2730;51.512;7.504;2022-12-29T08:55:00;11.30;99.90
5415;DHT22;2730;51.512;7.504;2022-12-29T08:57:27;11.30;99.90
5415;DHT22;2730;51.512;7.504;2022-12-29T08:59:54;11.40;99.90
5415;DHT22;2730;51.512;7.504;2022-12-29T09:02:21;11.40;99.90
5415;DHT22;2730;51.512;7.504;2022-12-29T09:04:48;11.40;99.90
5415;DHT22;2730;51.512;7.504;2022-12-29T09:07:14;11.50;99.90
5415;DHT22;2730;51.512;7.504;2022-12-29T09:09:43;11.40;99.90
5415;DHT22;2730;51.512;7.504;2022-12-29T09:12:10;11.40;99.90
5415;DHT22;2730;51.512;7.504;2022-12-29T09:14:37;11.30;99.90
5415;DHT22;2730;51.512;7.504;2022-12-29T09:17:03;11.20;99.90
5415;DHT22;2730;51.512;7.504;2022-12-29T09:19:49;11.00;99.90
5415;DHT22;2730;51.512;7.504;2022-12-29T09:22:16;10.90;99.90
5415;DHT22;2730;51.512;7.504;2022-12-29T09:24:44;10.80;99.90
5415;DHT22;2730;51.512;7.504;2022-12-29T09:27:11;10.70;99.90
5415;DHT22;2730;51.512;7.504;2022-12-29T09:29:38;10.70;99.90
5415;DHT22;2730;51.512;7.504;2022-12-29T09:32:05;10.60;99.90
5415;DHT22;2730;51.512;7.504;2022-12-29T09:34:32;10.60;99.90
5415;DHT22;2730;51.512;7.504;2022-12-29T09:36:59;10.60;99.90
5415;DHT22;2730;51.512;7.504;2022-12-29T09:39:26;10.60;99.90
5415;DHT22;2730;51.512;7.504;2022-12-29T09:42:00;11.20;99.90
5415;DHT22;2730;51.512;7.504;2022-12-29T09:44:36;12.00;99.90
5415;DHT22;2730;51.512;7.504;2022-12-29T09:47:10;12.60;99.90
5415;DHT22;2730;51.512;7.504;2022-12-29T09:49:42;13.20;99.90
5415;DHT22;2730;51.512;7.504;2022-12-29T09:52:13;13.40;99.90
5415;DHT22;2730;51.512;7.504;2022-12-29T09:54:48;13.00;99.90
5415;DHT22;2730;51.512;7.504;2022-12-29T09:57:23;12.40;99.90
5415;DHT22;2730;51.512;7.504;2022-12-29T09:59:54;12.00;99.90
5415;DHT22;2730;51.512;7.504;2022-12-29T10:02:33;11.80;99.90
5415;DHT22;2730;51.512;7.504;2022-12-29T10:05:04;11.90;99.90
5415;DHT22;2730;51.512;7.504;2022-12-29T10:07:43;11.80;99.90
5415;DHT22;2730;51.512;7.504;2022-12-29T10:10:27;11.70;99.90
5415;DHT22;2730;51.512;7.504;2022-12-29T10:13:16;11.60;99.90
5415;DHT22;2730;51.512;7.504;2022-12-29T10:15:55;11.40;99.90
5415;DHT22;2730;51.512;7.504;2022-12-29T10:18:37;11.30;99.90
5415;DHT22;2730;51.512;7.504;2022-12-29T10:21:14;11.40;99.90
5415;DHT22;2730;51.512;7.504;2022-12-29T10:23:46;11.30;99.90
5415;DHT22;2730;51.512;7.504;2022-12-29T10:26:18;11.50;99.90
5415;DHT22;2730;51.512;7.504;2022-12-29T10:28:48;11.80;99.90
5415;DHT22;2730;51.512;7.504;2022-12-29T10:31:18;12.10;99.90
5415;DHT22;2730;51.512;7.504;2022-12-29T10:33:49;12.20;99.90
5415;DHT22;2730;51.512;7.504;2022-12-29T10:36:21;12.30;99.90
5415;DHT22;2730;51.512;7.504;2022-12-29T10:39:06;12.50;99.90
5415;DHT22;2730;51.512;7.504;2022-12-29T10:41:41;12.70;99.90
5415;DHT22;2730;51.512;7.504;2022-12-29T10:44:15;12.50;99.90
5415;DHT22;2730;51.512;7.504;2022-12-29T10:46:43;12.30;99.90
5415;DHT22;2730;51.512;7.504;2022-12-29T10:49:14;12.20;99.90
5415;DHT22;2730;51.512;7.504;2022-12-29T10:51:45;12.30;99.90
5415;DHT22;2730;51.512;7.504;2022-12-29T10:54:16;12.40;99.90
5415;DHT22;2730;51.512;7.504;2022-12-29T10:56:47;12.30;99.90
5415;DHT22;2730;51.512;7.504;2022-12-29T10:59:21;12.20;99.90
5415;DHT22;2730;51.512;7.504;2022-12-29T11:01:55;12.30;99.90
5415;DHT22;2730;51.512;7.504;2022-12-29T11:04:40;12.30;99.90
5415;DHT22;2730;51.512;7.504;2022-12-29T11:07:11;12.20;99.90
5415;DHT22;2730;51.512;7.504;2022-12-29T11:09:40;12.10;99.90
5415;DHT22;2730;51.512;7.504;2022-12-29T11:12:22;12.00;99.90
5415;DHT22;2730;51.512;7.504;2022-12-29T11:15:01;11.80;99.90
5415;DHT22;2730;51.512;7.504;2022-12-29T11:17:29;11.80;99.90
5415;DHT22;2730;51.512;7.504;2022-12-29T11:19:55;11.70;99.90
5415;DHT22;2730;51.512;7.504;2022-12-29T11:22:24;11.70;99.90
5415;DHT22;2730;51.512;7.504;2022-12-29T11:24:53;11.70;99.90
5415;DHT22;2730;51.512;7.504;2022-12-29T11:27:22;11.70;99.90
5415;DHT22;2730;51.512;7.504;2022-12-29T11:29:50;11.60;99.90
5415;DHT22;2730;51.512;7.504;2022-12-29T11:32:20;11.60;99.90
5415;DHT22;2730;51.512;7.504;2022-12-29T11:34:48;11.60;99.90
5415;DHT22;2730;51.512;7.504;2022-12-29T11:37:17;11.60;99.90
5415;DHT22;2730;51.512;7.504;2022-12-29T11:39:50;11.60;99.90
5415;DHT22;2730;51.512;7.504;2022-12-29T11:42:22;11.60;99.90
5415;DHT22;2730;51.512;7.504;2022-12-29T11:44:51;11.60;99.90
5415;DHT22;2730;51.512;7.504;2022-12-29T11:47:26;11.60;99.90
5415;DHT22;2730;51.512;7.504;2022-12-29T11:49:58;11.50;99.90
5415;DHT22;2730;51.512;7.504;2022-12-29T11:52:27;11.60;99.90
5415;DHT22;2730;51.512;7.504;2022-12-29T11:54:56;11.60;99.90
5415;DHT22;2730;51.512;7.504;2022-12-29T11:57:25;11.60;99.90
5415;DHT22;2730;51.512;7.504;2022-12-29T11:59:53;11.50;99.90
5415;DHT22;2730;51.512;7.504;2022-12-29T12:02:37;11.50;99.90
5415;DHT22;2730;51.512;7.504;2022-12-29T12:05:15;11.50;99.90
5415;DHT22;2730;51.512;7.504;2022-12-29T12:07:46;11.50;99.90
5415;DHT22;2730;51.512;7.504;2022-12-29T12:10:19;11.50;99.90
5415;DHT22;2730;51.512;7.504;2022-12-29T12:12:52;11.50;99.90
5415;DHT22;2730;51.512;7.504;2022-12-29T12:15:24;11.60;99.90
5415;DHT22;2730;51.512;7.504;2022-12-29T12:17:57;11.60;99.90
5415;DHT22;2730;51.512;7.504;2022-12-29T12:20:34;11.60;99.90
5415;DHT22;2730;51.512;7.504;2022-12-29T12:23:10;11.50;99.90
5415;DHT22;2730;51.512;7.504;2022-12-29T12:25:43;11.60;99.90
5415;DHT22;2730;51.512;7.504;2022-12-29T12:28:19;11.50;99.90
5415;DHT22;2730;51.512;7.504;2022-12-29T12:30:50;11.50;99.90
5415;DHT22;2730;51.512;7.504;2022-12-29T12:33:26;11.60;99.90
5415;DHT22;2730;51.512;7.504;2022-12-29T12:36:06;11.50;99.90
5415;DHT22;2730;51.512;7.504;2022-12-29T12:38:42;11.60;99.90
5415;DHT22;2730;51.512;7.504;2022-12-29T12:41:17;11.50;99.90
5415;DHT22;2730;51.512;7.504;2022-12-29T12:43:49;11.60;99.90
5415;DHT22;2730;51.512;7.504;2022-12-29T12:46:33;11.60;99.90
5415;DHT22;2730;51.512;7.504;2022-12-29T12:52:11;11.50;99.90
5415;DHT22;2730;51.512;7.504;2022-12-29T12:55:01;11.50;99.90
5415;DHT22;2730;51.512;7.504;2022-12-29T12:57:44;11.50;99.90
5415;DHT22;2730;51.512;7.504;2022-12-29T13:00:14;11.50;99.90
5415;DHT22;2730;51.512;7.504;2022-12-29T13:03:03;11.50;99.90
5415;DHT22;2730;51.512;7.504;2022-12-29T13:05:47;11.50;99.90
5415;DHT22;2730;51.512;7.504;2022-12-29T13:08:34;11.40;99.90
5415;DHT22;2730;51.512;7.504;2022-12-29T13:11:10;11.40;99.90
5415;DHT22;2730;51.512;7.504;2022-12-29T13:14:04;11.30;99.90
5415;DHT22;2730;51.512;7.504;2022-12-29T13:16:39;11.30;99.90
5415;DHT22;2730;51.512;7.504;2022-12-29T13:19:12;11.30;99.90
5415;DHT22;2730;51.512;7.504;2022-12-29T13:21:52;11.30;99.90
5415;DHT22;2730;51.512;7.504;2022-12-29T13:24:24;11.20;99.90
5415;DHT22;2730;51.512;7.504;2022-12-29T13:26:58;11.20;99.90
5415;DHT22;2730;51.512;7.504;2022-12-29T13:29:34;11.30;99.90
5415;DHT22;2730;51.512;7.504;2022-12-29T13:32:15;11.30;99.90
5415;DHT22;2730;51.512;7.504;2022-12-29T13:34:56;11.30;99.90
5415;DHT22;2730;51.512;7.504;2022-12-29T13:37:29;11.20;99.90
5415;DHT22;2730;51.512;7.504;2022-12-29T13:40:01;11.20;99.90
5415;DHT22;2730;51.512;7.504;2022-12-29T13:42:30;11.10;99.90
5415;DHT22;2730;51.512;7.504;2022-12-29T13:45:00;11.20;99.90
5415;DHT22;2730;51.512;7.504;2022-12-29T13:47:32;11.20;99.90
5415;DHT22;2730;51.512;7.504;2022-12-29T13:50:03;11.20;99.90
5415;DHT22;2730;51.512;7.504;2022-12-29T13:52:36;11.20;99.90
5415;DHT22;2730;51.512;7.504;2022-12-29T13:55:19;11.10;99.90
5415;DHT22;2730;51.512;7.504;2022-12-29T13:57:50;11.10;99.90
5415;DHT22;2730;51.512;7.504;2022-12-29T14:00:20;11.20;99.90
5415;DHT22;2730;51.512;7.504;2022-12-29T14:03:09;11.20;99.90
5415;DHT22;2730;51.512;7.504;2022-12-29T14:05:39;11.20;99.90
5415;DHT22;2730;51.512;7.504;2022-12-29T14:08:18;11.20;99.90
5415;DHT22;2730;51.512;7.504;2022-12-29T14:10:50;11.20;99.90
5415;DHT22;2730;51.512;7.504;2022-12-29T14:13:19;11.10;99.90
5415;DHT22;2730;51.512;7.504;2022-12-29T14:15:51;11.10;99.90
5415;DHT22;2730;51.512;7.504;2022-12-29T14:18:21;11.10;99.90
5415;DHT22;2730;51.512;7.504;2022-12-29T14:20:54;11.00;99.90
5415;DHT22;2730;51.512;7.504;2022-12-29T14:23:36;11.00;99.90
5415;DHT22;2730;51.512;7.504;2022-12-29T14:26:12;10.90;99.90
5415;DHT22;2730;51.512;7.504;2022-12-29T14:28:41;10.90;99.90
5415;DHT22;2730;51.512;7.504;2022-12-29T14:31:33;10.90;99.90
5415;DHT22;2730;51.512;7.504;2022-12-29T14:34:27;10.90;99.90
5415;DHT22;2730;51.512;7.504;2022-12-29T14:36:55;10.90;99.90
5415;DHT22;2730;51.512;7.504;2022-12-29T14:39:38;10.90;99.90
5415;DHT22;2730;51.512;7.504;2022-12-29T14:42:10;10.90;99.90
5415;DHT22;2730;51.512;7.504;2022-12-29T14:44:46;10.80;99.90
5415;DHT22;2730;51.512;7.504;2022-12-29T14:47:19;10.80;99.90
5415;DHT22;2730;51.512;7.504;2022-12-29T14:49:47;10.90;99.90
5415;DHT22;2730;51.512;7.504;2022-12-29T14:52:18;10.90;99.90
5415;DHT22;2730;51.512;7.504;2022-12-29T14:54:50;10.80;99.90
5415;DHT22;2730;51.512;7.504;2022-12-29T14:57:26;10.90;99.90
5415;DHT22;2730;51.512;7.504;2022-12-29T14:59:57;10.80;99.90
5415;DHT22;2730;51.512;7.504;2022-12-29T15:02:33;10.80;99.90
5415;DHT22;2730;51.512;7.504;2022-12-29T15:05:02;10.80;99.90
5415;DHT22;2730;51.512;7.504;2022-12-29T15:07:30;10.80;99.90
5415;DHT22;2730;51.512;7.504;2022-12-29T15:10:05;10.90;99.90
5415;DHT22;2730;51.512;7.504;2022-12-29T15:12:37;10.90;99.90
5415;DHT22;2730;51.512;7.504;2022-12-29T15:15:18;10.90;99.90
5415;DHT22;2730;51.512;7.504;2022-12-29T15:17:45;10.80;99.90
5415;DHT22;2730;51.512;7.504;2022-12-29T15:20:24;10.80;99.90
5415;DHT22;2730;51.512;7.504;2022-12-29T15:22:55;10.80;99.90
5415;DHT22;2730;51.512;7.504;2022-12-29T15:25:24;10.70;99.90
5415;DHT22;2730;51.512;7.504;2022-12-29T15:27:53;10.70;99.90
5415;DHT22;2730;51.512;7.504;2022-12-29T15:30:22;10.70;99.90
5415;DHT22;2730;51.512;7.504;2022-12-29T15:32:50;10.70;99.90
5415;DHT22;2730;51.512;7.504;2022-12-29T15:35:31;10.70;99.90
5415;DHT22;2730;51.512;7.504;2022-12-29T15:37:59;10.70;99.90
5415;DHT22;2730;51.512;7.504;2022-12-29T15:40:31;10.70;99.90
5415;DHT22;2730;51.512;7.504;2022-12-29T15:43:14;10.60;99.90
5415;DHT22;2730;51.512;7.504;2022-12-29T15:45:44;10.60;99.90
5415;DHT22;2730;51.512;7.504;2022-12-29T15:48:16;10.60;99.90
5415;DHT22;2730;51.512;7.504;2022-12-29T15:50:44;10.60;99.90
5415;DHT22;2730;51.512;7.504;2022-12-29T15:53:18;10.70;99.90
5415;DHT22;2730;51.512;7.504;2022-12-29T15:55:51;10.60;99.90
5415;DHT22;2730;51.512;7.504;2022-12-29T15:58:21;10.70;99.90
5415;DHT22;2730;51.512;7.504;2022-12-29T16:00:49;10.70;99.90
5415;DHT22;2730;51.512;7.504;2022-12-29T16:03:18;10.70;99.90
5415;DHT22;2730;51.512;7.504;2022-12-29T16:05:51;10.60;99.90
5415;DHT22;2730;51.512;7.504;2022-12-29T16:08:27;10.60;99.90
5415;DHT22;2730;51.512;7.504;2022-12-29T16:11:00;10.60;99.90
5415;DHT22;2730;51.512;7.504;2022-12-29T16:13:30;10.60;99.90
5415;DHT22;2730;51.512;7.504;2022-12-29T16:16:00;10.60;99.90
5415;DHT22;2730;51.512;7.504;2022-12-29T16:18:30;10.60;99.90
5415;DHT22;2730;51.512;7.504;2022-12-29T16:21:00;10.50;99.90
5415;DHT22;2730;51.512;7.504;2022-12-29T16:23:28;10.50;99.90
5415;DHT22;2730;51.512;7.504;2022-12-29T16:25:58;10.50;99.90
5415;DHT22;2730;51.512;7.504;2022-12-29T16:28:30;10.50;99.90
5415;DHT22;2730;51.512;7.504;2022-12-29T16:30:59;10.50;99.90
5415;DHT22;2730;51.512;7.504;2022-12-29T16:33:47;10.40;99.90
5415;DHT22;2730;51.512;7.504;2022-12-29T16:36:29;10.40;99.90
5415;DHT22;2730;51.512;7.504;2022-12-29T16:39:11;10.50;99.90
5415;DHT22;2730;51.512;7.504;2022-12-29T16:41:43;10.30;99.90
5415;DHT22;2730;51.512;7.504;2022-12-29T16:44:17;10.20;99.90
5415;DHT22;2730;51.512;7.504;2022-12-29T16:46:58;10.20;99.90
5415;DHT22;2730;51.512;7.504;2022-12-29T16:49:27;10.10;99.90
5415;DHT22;2730;51.512;7.504;2022-12-29T16:51:54;10.00;99.90
5415;DHT22;2730;51.512;7.504;2022-12-29T16:54:24;9.90;99.90
5415;DHT22;2730;51.512;7.504;2022-12-29T16:56:55;9.90;99.90
5415;DHT22;2730;51.512;7.504;2022-12-29T16:59:32;10.00;99.90
5415;DHT22;2730;51.512;7.504;2022-12-29T17:02:05;10.00;99.90
5415;DHT22;2730;51.512;7.504;2022-12-29T17:04:32;10.10;99.90
5415;DHT22;2730;51.512;7.504;2022-12-29T17:06:59;10.10;99.90
5415;DHT22;2730;51.512;7.504;2022-12-29T17:09:27;10.00;99.90
5415;DHT22;2730;51.512;7.504;2022-12-29T17:11:57;10.00;99.90
5415;DHT22;2730;51.512;7.504;2022-12-29T17:14:35;9.90;99.90
5415;DHT22;2730;51.512;7.504;2022-12-29T17:17:05;9.90;99.90
5415;DHT22;2730;51.512;7.504;2022-12-29T17:19:37;9.80;99.90
5415;DHT22;2730;51.512;7.504;2022-12-29T17:22:09;9.80;99.90
5415;DHT22;2730;51.512;7.504;2022-12-29T17:24:36;9.90;99.90
5415;DHT22;2730;51.512;7.504;2022-12-29T17:27:05;9.90;99.90
5415;DHT22;2730;51.512;7.504;2022-12-29T17:29:34;9.90;99.90
5415;DHT22;2730;51.512;7.504;2022-12-29T17:32:04;9.90;99.90
5415;DHT22;2730;51.512;7.504;2022-12-29T17:34:32;9.90;99.90
5415;DHT22;2730;51.512;7.504;2022-12-29T17:36:59;10.00;99.90
5415;DHT22;2730;51.512;7.504;2022-12-29T17:39:26;10.00;99.90
5415;DHT22;2730;51.512;7.504;2022-12-29T17:41:53;10.10;99.90
5415;DHT22;2730;51.512;7.504;2022-12-29T17:44:28;10.10;99.90
5415;DHT22;2730;51.512;7.504;2022-12-29T17:46:54;10.00;99.90
5415;DHT22;2730;51.512;7.504;2022-12-29T17:49:21;10.10;99.90
5415;DHT22;2730;51.512;7.504;2022-12-29T17:51:48;10.00;99.90
5415;DHT22;2730;51.512;7.504;2022-12-29T17:54:20;10.00;99.90
5415;DHT22;2730;51.512;7.504;2022-12-29T17:56:48;10.00;99.90
5415;DHT22;2730;51.512;7.504;2022-12-29T17:59:15;9.90;99.90
5415;DHT22;2730;51.512;7.504;2022-12-29T18:01:45;9.90;99.90
5415;DHT22;2730;51.512;7.504;2022-12-29T18:04:14;9.90;99.90
5415;DHT22;2730;51.512;7.504;2022-12-29T18:06:41;9.80;99.90
5415;DHT22;2730;51.512;7.504;2022-12-29T18:09:08;9.80;99.90
5415;DHT22;2730;51.512;7.504;2022-12-29T18:11:37;9.60;99.90
5415;DHT22;2730;51.512;7.504;2022-12-29T18:14:07;9.30;99.90
5415;DHT22;2730;51.512;7.504;2022-12-29T18:16:36;9.10;99.90
5415;DHT22;2730;51.512;7.504;2022-12-29T18:19:05;8.90;99.90
5415;DHT22;2730;51.512;7.504;2022-12-29T18:21:32;8.70;99.90
5415;DHT22;2730;51.512;7.504;2022-12-29T18:23:59;8.60;99.90
5415;DHT22;2730;51.512;7.504;2022-12-29T18:26:27;8.30;99.90
5415;DHT22;2730;51.512;7.504;2022-12-29T18:28:57;8.20;99.90
5415;DHT22;2730;51.512;7.504;2022-12-29T18:31:25;8.10;99.90
5415;DHT22;2730;51.512;7.504;2022-12-29T18:33:53;8.00;99.90
5415;DHT22;2730;51.512;7.504;2022-12-29T18:36:22;8.00;99.90
5415;DHT22;2730;51.512;7.504;2022-12-29T18:38:50;7.90;99.90
5415;DHT22;2730;51.512;7.504;2022-12-29T18:41:20;7.90;99.90
5415;DHT22;2730;51.512;7.504;2022-12-29T18:43:47;7.80;99.90
5415;DHT22;2730;51.512;7.504;2022-12-29T18:46:14;7.70;99.90
5415;DHT22;2730;51.512;7.504;2022-12-29T18:48:41;7.60;99.90
5415;DHT22;2730;51.512;7.504;2022-12-29T18:51:14;7.50;99.90
5415;DHT22;2730;51.512;7.504;2022-12-29T18:53:43;7.40;99.90
5415;DHT22;2730;51.512;7.504;2022-12-29T18:56:11;7.40;99.90
5415;DHT22;2730;51.512;7.504;2022-12-29T18:58:38;7.30;99.90
5415;DHT22;2730;51.512;7.504;2022-12-29T19:01:09;7.30;99.90
5415;DHT22;2730;51.512;7.504;2022-12-29T19:03:43;7.30;99.90
5415;DHT22;2730;51.512;7.504;2022-12-29T19:06:10;7.30;99.90
5415;DHT22;2730;51.512;7.504;2022-12-29T19:08:37;7.30;99.90
5415;DHT22;2730;51.512;7.504;2022-12-29T19:11:05;7.20;99.90
5415;DHT22;2730;51.512;7.504;2022-12-29T19:13:32;7.10;99.90
5415;DHT22;2730;51.512;7.504;2022-12-29T19:15:59;7.10;99.90
5415;DHT22;2730;51.512;7.504;2022-12-29T19:18:27;7.10;99.90
5415;DHT22;2730;51.512;7.504;2022-12-29T19:20:55;7.00;99.90
5415;DHT22;2730;51.512;7.504;2022-12-29T19:23:23;7.10;99.90
5415;DHT22;2730;51.512;7.504;2022-12-29T19:25:53;7.10;99.90
5415;DHT22;2730;51.512;7.504;2022-12-29T19:28:23;7.10;99.90
5415;DHT22;2730;51.512;7.504;2022-12-29T19:30:51;7.10;99.90
5415;DHT22;2730;51.512;7.504;2022-12-29T19:33:19;7.20;99.90
5415;DHT22;2730;51.512;7.504;2022-12-29T19:35:46;7.20;99.90
5415;DHT22;2730;51.512;7.504;2022-12-29T19:38:13;7.20;99.90
5415;DHT22;2730;51.512;7.504;2022-12-29T19:40:41;7.20;99.90
5415;DHT22;2730;51.512;7.504;2022-12-29T19:43:09;7.20;99.90
5415;DHT22;2730;51.512;7.504;2022-12-29T19:45:39;7.20;99.90
5415;DHT22;2730;51.512;7.504;2022-12-29T19:48:07;7.30;99.90
5415;DHT22;2730;51.512;7.504;2022-12-29T19:50:37;7.40;99.90
5415;DHT22;2730;51.512;7.504;2022-12-29T19:53:04;7.40;99.90
5415;DHT22;2730;51.512;7.504;2022-12-29T19:55:31;7.30;99.90
5415;DHT22;2730;51.512;7.504;2022-12-29T19:57:58;7.40;99.90
5415;DHT22;2730;51.512;7.504;2022-12-29T20:00:25;7.30;99.90
5415;DHT22;2730;51.512;7.504;2022-12-29T20:02:54;7.40;99.90
5415;DHT22;2730;51.512;7.504;2022-12-29T20:05:20;7.30;99.90
5415;DHT22;2730;51.512;7.504;2022-12-29T20:07:48;7.30;99.90
5415;DHT22;2730;51.512;7.504;2022-12-29T20:10:15;7.30;99.90
5415;DHT22;2730;51.512;7.504;2022-12-29T20:12:41;7.40;99.90
5415;DHT22;2730;51.512;7.504;2022-12-29T20:15:10;7.40;99.90
5415;DHT22;2730;51.512;7.504;2022-12-29T20:17:37;7.40;99.90
5415;DHT22;2730;51.512;7.504;2022-12-29T20:20:07;7.40;99.90
5415;DHT22;2730;51.512;7.504;2022-12-29T20:22:34;7.50;99.90
5415;DHT22;2730;51.512;7.504;2022-12-29T20:25:01;7.50;99.90
5415;DHT22;2730;51.512;7.504;2022-12-29T20:27:28;7.50;99.90
5415;DHT22;2730;51.512;7.504;2022-12-29T20:29:54;7.50;99.90
5415;DHT22;2730;51.512;7.504;2022-12-29T20:32:22;7.40;99.90
5415;DHT22;2730;51.512;7.504;2022-12-29T20:34:50;7.40;99.90
5415;DHT22;2730;51.512;7.504;2022-12-29T20:37:20;7.40;99.90
5415;DHT22;2730;51.512;7.504;2022-12-29T20:39:47;7.30;99.90
5415;DHT22;2730;51.512;7.504;2022-12-29T20:42:14;7.30;99.90
5415;DHT22;2730;51.512;7.504;2022-12-29T20:44:42;7.30;99.90
5415;DHT22;2730;51.512;7.504;2022-12-29T20:47:09;7.40;99.90
5415;DHT22;2730;51.512;7.504;2022-12-29T20:49:36;7.40;99.90
5415;DHT22;2730;51.512;7.504;2022-12-29T20:52:03;7.50;99.90
5415;DHT22;2730;51.512;7.504;2022-12-29T20:54:32;7.50;99.90
5415;DHT22;2730;51.512;7.504;2022-12-29T20:57:00;7.50;99.90
5415;DHT22;2730;51.512;7.504;2022-12-29T20:59:27;7.60;99.90
5415;DHT22;2730;51.512;7.504;2022-12-29T21:01:55;7.50;99.90
5415;DHT22;2730;51.512;7.504;2022-12-29T21:04:22;7.60;99.90
5415;DHT22;2730;51.512;7.504;2022-12-29T21:06:49;7.60;99.90
5415;DHT22;2730;51.512;7.504;2022-12-29T21:09:16;7.60;99.90
5415;DHT22;2730;51.512;7.504;2022-12-29T21:11:46;7.60;99.90
5415;DHT22;2730;51.512;7.504;2022-12-29T21:14:15;7.60;99.90
5415;DHT22;2730;51.512;7.504;2022-12-29T21:16:42;7.60;99.90
5415;DHT22;2730;51.512;7.504;2022-12-29T21:19:09;7.50;99.90
5415;DHT22;2730;51.512;7.504;2022-12-29T21:21:36;7.50;99.90
5415;DHT22;2730;51.512;7.504;2022-12-29T21:24:03;7.40;99.90
5415;DHT22;2730;51.512;7.504;2022-12-29T21:26:31;7.40;99.90
5415;DHT22;2730;51.512;7.504;2022-12-29T21:29:01;7.40;99.90
5415;DHT22;2730;51.512;7.504;2022-12-29T21:31:30;7.50;99.90
5415;DHT22;2730;51.512;7.504;2022-12-29T21:33:58;7.40;99.90
5415;DHT22;2730;51.512;7.504;2022-12-29T21:36:25;7.40;99.90
5415;DHT22;2730;51.512;7.504;2022-12-29T21:38:53;7.40;99.90
5415;DHT22;2730;51.512;7.504;2022-12-29T21:41:21;7.40;99.90
5415;DHT22;2730;51.512;7.504;2022-12-29T21:43:48;7.40;99.90
5415;DHT22;2730;51.512;7.504;2022-12-29T21:46:31;7.40;99.90
5415;DHT22;2730;51.512;7.504;2022-12-29T21:48:58;7.30;99.90
5415;DHT22;2730;51.512;7.504;2022-12-29T21:51:25;7.30;99.90
5415;DHT22;2730;51.512;7.504;2022-12-29T21:54:10;7.30;99.90
5415;DHT22;2730;51.512;7.504;2022-12-29T21:56:54;7.20;99.90
5415;DHT22;2730;51.512;7.504;2022-12-29T21:59:21;7.30;99.90
5415;DHT22;2730;51.512;7.504;2022-12-29T22:02:16;7.30;99.90
5415;DHT22;2730;51.512;7.504;2022-12-29T22:05:01;7.30;99.90
5415;DHT22;2730;51.512;7.504;2022-12-29T22:07:46;7.30;99.90
5415;DHT22;2730;51.512;7.504;2022-12-29T22:10:30;7.20;99.90
5415;DHT22;2730;51.512;7.504;2022-12-29T22:13:14;7.20;99.90
5415;DHT22;2730;51.512;7.504;2022-12-29T22:15:41;7.20;99.90
5415;DHT22;2730;51.512;7.504;2022-12-29T22:18:09;7.20;99.90
5415;DHT22;2730;51.512;7.504;2022-12-29T22:20:36;7.10;99.90
5415;DHT22;2730;51.512;7.504;2022-12-29T22:23:04;7.00;99.90
5415;DHT22;2730;51.512;7.504;2022-12-29T22:25:30;7.00;99.90
5415;DHT22;2730;51.512;7.504;2022-12-29T22:27:57;7.00;99.90
5415;DHT22;2730;51.512;7.504;2022-12-29T22:30:24;7.00;99.90
5415;DHT22;2730;51.512;7.504;2022-12-29T22:32:51;7.00;99.90